Time;durP1;ratioP1;P1;durP2;ratioP2;P2;SDS_P1;SDS_P2;PMS_P1;PMS_P2;Temp;Humidity;BMP_temperature;BMP_pressure;BME280_temperature;BME280_humidity;BME280_pressure;Samples;Min_cycle;Max_cycle;Signal;HPM_P1;HPM_P2
2023/01/12 00:02:11;;;;;;;7.95;1.63;;;7.30;87.60;;;;;;5059125;28;20055;-63
2023/01/12 00:04:43;;;;;;;7.78;1.38;;;7.30;87.70;;;;;;5050293;28;20045;-61
2023/01/12 00:07:14;;;;;;;5.78;1.45;;;7.20;87.70;;;;;;5050794;28;20484;-65
2023/01/12 00:09:41;;;;;;;7.20;2.20;;;7.20;87.60;;;;;;5050085;28;20053;-62
2023/01/12 00:12:10;;;;;;;5.70;1.23;;;7.30;87.60;;;;;;5051719;28;20052;-60
2023/01/12 00:14:38;;;;;;;7.57;1.42;;;7.20;87.60;;;;;;5047195;28;20048;-61
2023/01/12 00:17:05;;;;;;;4.97;1.55;;;7.30;87.60;;;;;;5046920;28;20045;-60
2023/01/12 00:19:32;;;;;;;5.03;1.42;;;7.30;87.60;;;;;;5039748;28;20053;-62
2023/01/12 00:22:05;;;;;;;5.93;1.27;;;7.30;87.40;;;;;;5046483;28;20432;-59
2023/01/12 00:24:34;;;;;;;4.43;1.15;;;7.20;87.50;;;;;;5047847;28;20126;-59
2023/01/12 00:27:02;;;;;;;8.45;1.33;;;7.20;87.40;;;;;;5047213;28;21433;-60
2023/01/12 00:29:30;;;;;;;4.88;1.40;;;7.20;87.50;;;;;;5045554;28;20049;-61
2023/01/12 00:31:59;;;;;;;4.47;1.10;;;7.30;87.50;;;;;;5046243;28;20045;-60
2023/01/12 00:34:27;;;;;;;8.50;1.20;;;7.30;87.50;;;;;;5050218;28;20052;-60
2023/01/12 00:36:54;;;;;;;8.20;1.92;;;7.30;87.60;;;;;;5046847;28;20041;-60
2023/01/12 00:39:22;;;;;;;5.78;1.10;;;7.40;88.20;;;;;;5043493;28;20049;-60
2023/01/12 00:47:18;;;;;;;8.07;1.70;;;7.70;88.10;;;;;;5037758;28;20053;-70
2023/01/12 00:49:45;;;;;;;6.57;1.35;;;7.70;88.00;;;;;;5035997;28;20049;-69
2023/01/12 00:52:15;;;;;;;8.15;1.55;;;7.70;88.00;;;;;;5037733;28;20041;-67
2023/01/12 00:54:43;;;;;;;10.43;1.90;;;7.70;87.80;;;;;;5038448;28;20045;-68
2023/01/12 00:57:12;;;;;;;6.82;1.50;;;7.80;87.90;;;;;;5038803;28;20460;-69
2023/01/12 00:59:39;;;;;;;7.13;1.60;;;7.90;87.70;;;;;;5040005;28;20492;-68
2023/01/12 01:02:06;;;;;;;8.75;1.50;;;7.90;87.20;;;;;;5041276;28;20047;-68
2023/01/12 01:04:34;;;;;;;7.32;1.50;;;7.80;87.30;;;;;;5037843;28;20568;-68
2023/01/12 01:07:01;;;;;;;5.70;1.80;;;7.90;87.50;;;;;;5039662;28;20052;-69
2023/01/12 01:09:29;;;;;;;7.75;1.73;;;8.00;87.40;;;;;;5038271;28;20061;-70
2023/01/12 01:11:57;;;;;;;8.82;1.60;;;8.00;87.20;;;;;;5051152;28;20444;-62
2023/01/12 01:14:25;;;;;;;6.65;1.23;;;8.00;87.10;;;;;;5035206;28;20050;-63
2023/01/12 01:16:51;;;;;;;7.15;1.48;;;7.90;87.10;;;;;;5043190;28;20059;-61
2023/01/12 01:19:18;;;;;;;6.18;1.52;;;7.90;86.70;;;;;;5040502;28;20054;-61
2023/01/12 01:21:45;;;;;;;6.32;1.90;;;7.90;87.10;;;;;;5039556;28;20068;-61
2023/01/12 01:24:13;;;;;;;6.00;1.38;;;8.00;87.10;;;;;;5037588;28;20072;-60
2023/01/12 01:26:41;;;;;;;9.40;1.63;;;7.90;86.70;;;;;;5042087;28;20044;-62
2023/01/12 01:29:10;;;;;;;5.60;1.40;;;7.90;86.90;;;;;;5039571;28;20507;-63
2023/01/12 01:31:37;;;;;;;8.05;1.40;;;7.80;86.80;;;;;;5040264;28;20057;-62
2023/01/12 01:34:07;;;;;;;7.85;1.95;;;7.80;86.60;;;;;;5051107;28;20136;-62
2023/01/12 01:36:34;;;;;;;10.93;1.70;;;7.80;86.70;;;;;;5050361;28;20054;-59
2023/01/12 01:39:01;;;;;;;10.65;2.53;;;7.80;86.60;;;;;;5047983;28;20053;-58
2023/01/12 01:41:30;;;;;;;7.30;1.40;;;7.80;86.50;;;;;;5048217;28;20076;-58
2023/01/12 01:43:59;;;;;;;7.68;1.40;;;7.80;86.50;;;;;;5059692;28;20044;-58
2023/01/12 01:46:43;;;;;;;7.32;1.60;;;7.80;86.40;;;;;;5051449;28;20053;-57
2023/01/12 01:49:29;;;;;;;7.07;1.95;;;7.90;86.40;;;;;;5048459;28;20048;-58
2023/01/12 01:52:00;;;;;;;5.40;1.50;;;7.80;86.30;;;;;;5029937;28;20402;-58
2023/01/12 01:54:33;;;;;;;10.32;1.65;;;7.90;86.20;;;;;;5038204;28;20061;-57
2023/01/12 01:57:00;;;;;;;5.65;1.08;;;7.80;86.10;;;;;;5040921;28;20055;-58
2023/01/12 01:59:32;;;;;;;6.53;1.05;;;7.80;86.00;;;;;;5049474;28;20060;-58
2023/01/12 02:02:01;;;;;;;6.80;1.30;;;7.90;86.10;;;;;;5038381;28;20068;-57
2023/01/12 02:04:28;;;;;;;6.70;1.17;;;7.90;86.10;;;;;;5052513;28;20130;-58
2023/01/12 02:06:56;;;;;;;5.03;1.20;;;7.90;86.00;;;;;;5050117;28;20100;-58
2023/01/12 02:09:25;;;;;;;7.03;1.50;;;7.90;86.00;;;;;;5048680;28;20136;-58
2023/01/12 02:17:43;;;;;;;7.55;1.23;;;7.90;85.80;;;;;;5037343;28;20768;-62
2023/01/12 02:20:49;;;;;;;6.18;0.88;;;7.90;85.90;;;;;;5048633;28;20052;-63
2023/01/12 02:23:57;;;;;;;8.10;1.05;;;7.90;85.90;;;;;;5052207;28;20479;-62
2023/01/12 02:26:52;;;;;;;6.78;1.40;;;7.90;85.80;;;;;;5049334;28;20080;-60
2023/01/12 02:29:41;;;;;;;5.45;1.27;;;7.90;85.70;;;;;;5045843;28;20045;-61
2023/01/12 02:32:16;;;;;;;9.68;1.42;;;8.00;85.60;;;;;;5040099;28;20052;-59
2023/01/12 02:34:51;;;;;;;6.97;1.30;;;7.90;85.60;;;;;;5039791;28;20057;-60
2023/01/12 02:37:28;;;;;;;7.88;1.52;;;7.90;85.70;;;;;;5037229;28;20095;-61
2023/01/12 02:40:00;;;;;;;3.88;0.90;;;7.90;85.40;;;;;;5039298;28;20053;-60
2023/01/12 02:42:43;;;;;;;6.10;1.35;;;8.00;85.50;;;;;;5040643;28;20041;-63
2023/01/12 02:45:27;;;;;;;7.22;1.25;;;8.00;85.50;;;;;;5037987;28;20052;-61
2023/01/12 02:47:58;;;;;;;5.72;2.00;;;8.00;85.40;;;;;;5040083;28;20045;-63
2023/01/12 02:50:33;;;;;;;7.88;2.00;;;8.00;85.40;;;;;;5039516;28;20053;-60
2023/01/12 02:53:09;;;;;;;5.45;1.40;;;8.00;85.40;;;;;;5037571;28;21276;-61
2023/01/12 02:55:39;;;;;;;7.00;1.33;;;8.00;85.40;;;;;;5035796;28;20453;-62
2023/01/12 02:58:09;;;;;;;5.22;1.10;;;8.00;85.20;;;;;;5038479;28;20050;-61
2023/01/12 03:00:38;;;;;;;4.80;1.13;;;8.00;85.20;;;;;;5039322;28;20522;-57
2023/01/12 03:03:07;;;;;;;7.32;1.33;;;8.00;85.20;;;;;;5038172;28;20072;-58
2023/01/12 03:05:34;;;;;;;5.25;1.20;;;8.00;85.10;;;;;;5038439;28;20407;-61
2023/01/12 03:08:03;;;;;;;7.30;1.33;;;8.00;85.10;;;;;;5039341;28;20052;-60
2023/01/12 03:10:44;;;;;;;7.25;1.30;;;8.00;85.10;;;;;;5038373;28;20053;-59
2023/01/12 03:13:15;;;;;;;6.10;1.17;;;8.10;85.00;;;;;;5039921;28;20480;-59
2023/01/12 03:15:46;;;;;;;8.55;1.20;;;8.00;85.10;;;;;;5038695;28;20053;-60
2023/01/12 03:18:18;;;;;;;4.95;1.10;;;8.10;85.10;;;;;;5037250;28;20557;-57
2023/01/12 03:20:50;;;;;;;4.00;1.23;;;8.00;85.10;;;;;;5040550;28;20064;-58
2023/01/12 03:23:20;;;;;;;5.72;1.25;;;8.10;85.10;;;;;;5040154;28;20057;-57
2023/01/12 03:25:50;;;;;;;7.80;1.40;;;8.10;85.10;;;;;;5041512;28;20067;-58
2023/01/12 03:28:21;;;;;;;6.22;1.40;;;8.10;85.00;;;;;;5041859;28;20052;-57
2023/01/12 03:30:55;;;;;;;7.05;1.63;;;8.10;85.10;;;;;;5040479;28;20041;-58
2023/01/12 03:33:25;;;;;;;8.52;1.17;;;8.10;85.10;;;;;;5040237;28;20447;-58
2023/01/12 03:36:01;;;;;;;7.93;1.42;;;8.10;85.00;;;;;;5039867;28;20049;-69
2023/01/12 03:38:36;;;;;;;5.30;1.00;;;8.10;85.00;;;;;;5039304;28;20043;-69
2023/01/12 03:41:07;;;;;;;6.78;1.23;;;8.10;85.00;;;;;;5041747;28;20045;-61
2023/01/12 03:43:39;;;;;;;9.93;1.83;;;8.10;84.90;;;;;;5041646;28;20583;-60
2023/01/12 03:46:11;;;;;;;6.25;1.48;;;8.10;85.00;;;;;;5041083;28;20045;-61
2023/01/12 03:48:44;;;;;;;6.43;1.48;;;8.10;84.90;;;;;;5042095;28;20087;-60
2023/01/12 03:51:15;;;;;;;6.38;1.20;;;8.10;84.90;;;;;;5040541;28;20044;-60
2023/01/12 03:53:44;;;;;;;6.60;1.45;;;8.20;84.90;;;;;;5048996;28;20041;-61
2023/01/12 03:56:13;;;;;;;5.82;1.23;;;8.10;85.00;;;;;;5048986;28;20412;-61
2023/01/12 03:58:41;;;;;;;4.75;1.00;;;8.10;85.00;;;;;;5039429;28;20040;-61
2023/01/12 04:01:08;;;;;;;6.63;1.23;;;8.10;85.00;;;;;;5051670;28;20121;-60
2023/01/12 04:03:42;;;;;;;6.57;1.10;;;8.20;85.00;;;;;;5049161;28;20051;-60
2023/01/12 04:06:09;;;;;;;7.78;1.73;;;8.10;85.00;;;;;;5048383;28;20107;-64
2023/01/12 04:08:36;;;;;;;6.90;1.52;;;8.10;85.10;;;;;;5036339;28;20057;-63
2023/01/12 04:12:08;;;;;;;5.63;1.52;;;8.10;85.10;;;;;;5039810;28;20051;-63
2023/01/12 04:13:51;;;;;;;8.48;1.02;;;8.10;85.10;;;;;;5036811;28;20060;-64
2023/01/12 04:16:18;;;;;;;6.18;1.67;;;8.10;85.10;;;;;;5041412;28;20054;-63
2023/01/12 04:18:46;;;;;;;8.25;1.65;;;8.20;85.10;;;;;;5036532;28;20381;-64
2023/01/12 04:23:54;;;;;;;6.03;1.25;;;8.20;85.10;;;;;;5039033;28;20145;-63
2023/01/12 04:26:21;;;;;;;7.90;1.30;;;8.20;85.10;;;;;;5037020;28;20056;-58
2023/01/12 04:28:47;;;;;;;11.52;1.67;;;8.20;85.10;;;;;;5039908;28;20045;-58
2023/01/12 04:31:14;;;;;;;5.43;1.17;;;8.20;85.10;;;;;;5041144;28;20045;-57
2023/01/12 04:33:41;;;;;;;5.32;1.33;;;8.20;85.10;;;;;;5044689;28;20419;-58
2023/01/12 04:36:11;;;;;;;7.43;1.08;;;8.20;85.10;;;;;;5056417;28;20049;-58
2023/01/12 04:38:40;;;;;;;6.25;1.10;;;8.20;85.20;;;;;;5040674;28;20072;-60
2023/01/12 04:41:07;;;;;;;7.22;1.58;;;8.20;85.20;;;;;;5037814;28;20049;-63
2023/01/12 04:43:34;;;;;;;9.02;1.27;;;8.20;85.30;;;;;;5039960;28;20049;-63
2023/01/12 04:46:06;;;;;;;7.75;1.50;;;8.20;85.30;;;;;;5043394;28;20056;-63
2023/01/12 04:48:33;;;;;;;5.88;1.50;;;8.20;85.30;;;;;;5043048;28;20045;-63
2023/01/12 04:51:00;;;;;;;5.13;1.38;;;8.20;85.40;;;;;;5044026;28;20103;-63
2023/01/12 04:53:29;;;;;;;5.78;1.42;;;8.20;85.40;;;;;;5042233;28;20044;-64
2023/01/12 04:55:56;;;;;;;8.52;1.38;;;8.20;85.50;;;;;;5044120;28;20427;-63
2023/01/12 04:58:23;;;;;;;6.68;1.30;;;8.20;85.60;;;;;;5042375;28;20057;-64
2023/01/12 05:00:50;;;;;;;8.40;1.58;;;8.20;85.70;;;;;;5041363;28;20060;-64
2023/01/12 05:03:17;;;;;;;4.80;1.10;;;8.20;85.70;;;;;;5045461;28;20056;-63
2023/01/12 05:05:45;;;;;;;9.63;1.60;;;8.20;85.80;;;;;;5043598;28;20052;-63
2023/01/12 05:11:01;;;;;;;6.03;1.15;;;8.20;85.90;;;;;;5040960;28;20466;-61
2023/01/12 05:13:30;;;;;;;5.25;0.98;;;8.20;85.80;;;;;;5043234;28;20041;-61
2023/01/12 05:15:57;;;;;;;4.97;1.00;;;8.20;85.80;;;;;;5041751;28;20114;-58
2023/01/12 05:18:24;;;;;;;7.07;1.67;;;8.20;85.80;;;;;;5041409;28;20282;-58
2023/01/12 05:20:51;;;;;;;6.80;1.02;;;8.20;85.80;;;;;;5045526;28;20046;-58
2023/01/12 05:23:18;;;;;;;5.50;1.27;;;8.20;85.80;;;;;;5044397;28;20065;-57
2023/01/12 05:25:45;;;;;;;6.63;1.30;;;8.20;85.80;;;;;;5044019;28;20064;-58
2023/01/12 05:28:13;;;;;;;10.20;1.50;;;8.20;85.80;;;;;;5043548;28;20045;-59
2023/01/12 05:30:40;;;;;;;7.95;1.30;;;8.20;85.70;;;;;;5043210;28;20053;-58
2023/01/12 05:33:07;;;;;;;8.10;1.40;;;8.20;85.70;;;;;;5051246;28;20634;-58
2023/01/12 05:35:33;;;;;;;3.50;1.10;;;8.20;85.60;;;;;;5048522;28;20085;-58
2023/01/12 05:38:01;;;;;;;9.27;1.35;;;8.20;85.60;;;;;;5053801;28;20045;-58
2023/01/12 05:40:28;;;;;;;6.57;1.05;;;8.20;85.50;;;;;;5053126;28;20139;-58
2023/01/12 05:45:41;;;;;;;7.00;1.70;;;8.20;85.50;;;;;;5057578;28;20143;-58
2023/01/12 05:48:10;;;;;;;8.85;1.30;;;8.30;85.40;;;;;;5050283;28;20056;-58
2023/01/12 05:50:37;;;;;;;6.45;1.10;;;8.30;85.30;;;;;;5047135;28;20060;-58
2023/01/12 05:53:10;;;;;;;4.47;0.93;;;8.30;85.30;;;;;;5050517;28;20111;-57
2023/01/12 05:55:37;;;;;;;7.25;1.25;;;8.20;85.30;;;;;;5050064;28;20052;-58
2023/01/12 05:58:04;;;;;;;6.97;1.15;;;8.30;85.20;;;;;;5052316;28;20159;-57
2023/01/12 06:00:31;;;;;;;9.13;2.47;;;8.30;85.20;;;;;;5053314;28;20052;-58
2023/01/12 06:02:59;;;;;;;7.88;1.15;;;8.30;85.20;;;;;;5049123;28;20048;-57
2023/01/12 06:05:26;;;;;;;6.25;1.13;;;8.20;85.30;;;;;;5046757;28;20064;-58
2023/01/12 06:07:53;;;;;;;8.50;1.10;;;8.30;85.30;;;;;;5048702;28;20037;-58
2023/01/12 06:10:20;;;;;;;9.45;1.50;;;8.30;85.30;;;;;;5052709;28;20041;-58
2023/01/12 06:15:34;;;;;;;4.45;1.52;;;8.30;85.40;;;;;;5047648;28;20053;-57
2023/01/12 06:18:02;;;;;;;5.80;1.35;;;8.30;85.40;;;;;;5051230;28;20504;-59
2023/01/12 06:20:29;;;;;;;7.00;1.60;;;8.30;85.30;;;;;;5053857;28;20076;-58
2023/01/12 06:23:00;;;;;;;6.65;1.15;;;8.30;85.20;;;;;;5054976;28;20057;-58
2023/01/12 06:25:29;;;;;;;5.55;1.10;;;8.30;85.10;;;;;;5053058;28;20588;-57
2023/01/12 06:27:56;;;;;;;3.53;1.13;;;8.30;85.10;;;;;;5050573;28;20054;-58
2023/01/12 06:30:23;;;;;;;8.20;1.48;;;8.30;85.00;;;;;;5049843;28;20212;-59
2023/01/12 06:32:50;;;;;;;8.05;1.05;;;8.30;85.10;;;;;;5050782;28;20049;-58
2023/01/12 06:35:19;;;;;;;5.40;1.20;;;8.30;85.10;;;;;;5052102;28;20060;-58
2023/01/12 06:37:45;;;;;;;5.97;1.30;;;8.30;85.10;;;;;;5053916;28;20041;-58
2023/01/12 06:40:13;;;;;;;5.20;1.05;;;8.30;85.10;;;;;;5049078;28;20045;-58
2023/01/12 06:42:40;;;;;;;6.75;1.08;;;8.40;85.10;;;;;;5052749;28;20506;-58
2023/01/12 06:45:09;;;;;;;5.07;1.30;;;8.30;84.90;;;;;;5048497;28;20453;-58
2023/01/12 06:47:44;;;;;;;9.25;1.23;;;8.40;84.90;;;;;;5040648;28;20064;-58
2023/01/12 06:50:11;;;;;;;6.07;1.40;;;8.40;84.90;;;;;;5051993;28;20083;-58
2023/01/12 06:52:39;;;;;;;5.28;1.25;;;8.40;84.90;;;;;;5052451;28;20044;-59
2023/01/12 06:55:07;;;;;;;9.00;2.08;;;8.40;84.70;;;;;;5051897;28;20054;-57
2023/01/12 06:57:34;;;;;;;7.35;1.40;;;8.40;84.90;;;;;;5044575;28;20518;-60
2023/01/12 07:00:01;;;;;;;6.05;1.05;;;8.40;84.80;;;;;;5043080;28;20048;-59
2023/01/12 07:02:27;;;;;;;8.98;1.02;;;8.40;84.80;;;;;;5036373;28;20095;-61
2023/01/12 07:04:54;;;;;;;8.10;1.33;;;8.40;84.90;;;;;;5050318;28;20917;-60
2023/01/12 07:07:21;;;;;;;6.75;1.42;;;8.40;85.00;;;;;;5043402;28;20048;-60
2023/01/12 07:09:50;;;;;;;6.90;1.20;;;8.40;85.20;;;;;;5041456;28;20050;-61
2023/01/12 07:12:16;;;;;;;4.90;1.25;;;8.40;85.40;;;;;;5039495;28;20068;-57
2023/01/12 07:14:43;;;;;;;5.45;1.17;;;8.40;85.50;;;;;;5040268;28;20058;-59
2023/01/12 07:17:11;;;;;;;6.03;1.23;;;8.40;85.60;;;;;;5039323;28;20067;-59
2023/01/12 07:19:38;;;;;;;7.22;1.30;;;8.30;85.80;;;;;;5041399;28;20512;-57
2023/01/12 07:22:05;;;;;;;3.70;1.25;;;8.30;85.90;;;;;;5040476;28;20053;-64
2023/01/12 07:24:32;;;;;;;5.65;1.15;;;8.30;86.20;;;;;;5039921;28;20060;-62
2023/01/12 07:27:00;;;;;;;4.63;1.10;;;8.30;86.20;;;;;;5038339;28;20052;-62
2023/01/12 07:29:28;;;;;;;6.32;1.38;;;8.30;86.40;;;;;;5041719;28;20045;-62
2023/01/12 07:31:55;;;;;;;3.15;0.80;;;8.20;86.70;;;;;;5041583;28;20530;-63
2023/01/12 07:34:22;;;;;;;6.50;1.25;;;8.30;86.70;;;;;;5042785;28;20430;-63
2023/01/12 07:36:49;;;;;;;8.15;1.20;;;8.30;86.70;;;;;;5041310;28;20409;-64
2023/01/12 07:39:16;;;;;;;8.23;1.75;;;8.30;86.80;;;;;;5041311;28;20136;-64
2023/01/12 07:44:31;;;;;;;7.65;1.65;;;8.30;87.10;;;;;;5039058;28;20065;-62
2023/01/12 07:46:58;;;;;;;6.90;2.10;;;8.30;87.10;;;;;;5041276;28;20045;-70
2023/01/12 07:49:25;;;;;;;5.65;1.80;;;8.30;87.00;;;;;;5039682;28;20057;-70
2023/01/12 07:51:52;;;;;;;8.05;1.92;;;8.30;87.10;;;;;;5035884;28;20049;-68
2023/01/12 07:54:19;;;;;;;11.15;1.58;;;8.30;87.20;;;;;;5041385;28;20045;-68
2023/01/12 07:56:46;;;;;;;7.25;1.23;;;8.30;87.00;;;;;;5039400;28;20377;-67
2023/01/12 07:59:14;;;;;;;5.10;1.17;;;8.30;87.20;;;;;;5040370;28;20411;-66
2023/01/12 08:01:42;;;;;;;5.70;1.00;;;8.30;87.10;;;;;;5037103;28;20049;-67
2023/01/12 08:04:09;;;;;;;5.63;1.27;;;8.30;87.30;;;;;;5046350;28;20163;-68
2023/01/12 08:06:36;;;;;;;4.65;1.48;;;8.30;87.30;;;;;;5042224;28;20048;-61
2023/01/12 08:09:04;;;;;;;7.13;1.25;;;8.20;87.40;;;;;;5047771;28;20398;-60
2023/01/12 08:11:31;;;;;;;4.95;1.05;;;8.20;87.40;;;;;;5041590;28;20917;-60
2023/01/12 08:13:58;;;;;;;5.40;1.20;;;8.20;87.50;;;;;;5035824;28;20059;-60
2023/01/12 08:16:31;;;;;;;5.97;1.40;;;8.20;87.70;;;;;;5035709;28;20045;-60
2023/01/12 08:19:02;;;;;;;6.40;1.30;;;8.30;87.50;;;;;;5037546;28;20053;-60
2023/01/12 08:21:35;;;;;;;5.68;1.00;;;8.30;87.60;;;;;;5041033;28;20048;-58
2023/01/12 08:24:05;;;;;;;7.93;1.77;;;8.30;87.70;;;;;;5043506;28;20481;-57
2023/01/12 08:26:37;;;;;;;4.57;1.30;;;8.30;87.90;;;;;;5039189;28;20093;-57
2023/01/12 08:29:09;;;;;;;4.47;0.95;;;8.30;87.70;;;;;;5041365;28;20045;-58
2023/01/12 08:31:38;;;;;;;3.88;0.95;;;8.30;87.80;;;;;;5041348;28;20059;-58
2023/01/12 08:34:07;;;;;;;6.63;1.40;;;8.30;87.80;;;;;;5041727;28;20041;-57
2023/01/12 08:36:35;;;;;;;8.07;0.85;;;8.20;87.90;;;;;;5039002;28;20041;-58
2023/01/12 08:39:03;;;;;;;5.43;1.00;;;8.30;87.90;;;;;;5042305;28;20045;-58
2023/01/12 08:41:32;;;;;;;6.00;0.98;;;8.20;88.00;;;;;;5042479;28;20053;-58
2023/01/12 08:44:02;;;;;;;5.90;1.02;;;8.30;87.90;;;;;;5043862;28;20057;-57
2023/01/12 08:46:30;;;;;;;5.43;1.00;;;8.30;88.00;;;;;;5038297;28;20052;-60
2023/01/12 08:48:57;;;;;;;6.72;1.17;;;8.30;88.00;;;;;;5040774;28;20052;-60
2023/01/12 08:51:26;;;;;;;5.75;0.90;;;8.30;88.00;;;;;;5044887;28;20484;-60
2023/01/12 08:53:53;;;;;;;6.85;1.02;;;8.30;88.10;;;;;;5042922;28;21236;-60
2023/01/12 08:56:20;;;;;;;4.38;0.88;;;8.30;88.20;;;;;;5044179;28;20037;-59
2023/01/12 08:58:47;;;;;;;4.32;0.88;;;8.30;88.30;;;;;;5042144;28;20048;-60
2023/01/12 09:01:15;;;;;;;4.93;0.82;;;8.30;88.40;;;;;;5040486;28;20492;-63
2023/01/12 09:03:44;;;;;;;4.00;0.85;;;8.30;88.30;;;;;;5040273;28;20052;-63
2023/01/12 09:06:14;;;;;;;5.10;0.98;;;8.30;88.40;;;;;;5042014;28;20128;-64
2023/01/12 09:08:42;;;;;;;4.63;0.90;;;8.30;88.40;;;;;;5042793;28;21073;-63
2023/01/12 09:11:11;;;;;;;4.78;1.00;;;8.30;88.40;;;;;;5053225;28;20544;-60
2023/01/12 09:13:38;;;;;;;5.47;1.00;;;8.30;88.40;;;;;;5053233;28;20041;-60
2023/01/12 09:16:06;;;;;;;3.25;0.88;;;8.30;88.40;;;;;;5049520;28;20049;-63
2023/01/12 09:18:33;;;;;;;4.88;1.15;;;8.30;88.50;;;;;;5048511;28;20045;-61
2023/01/12 09:21:02;;;;;;;4.35;0.93;;;8.30;88.40;;;;;;5053598;28;20050;-61
2023/01/12 09:23:29;;;;;;;5.13;0.80;;;8.30;88.60;;;;;;5053276;28;21319;-60
2023/01/12 09:26:01;;;;;;;5.22;1.10;;;8.30;88.70;;;;;;5042694;28;20495;-60
2023/01/12 09:28:28;;;;;;;6.15;1.83;;;8.30;88.70;;;;;;5056042;28;20044;-61
2023/01/12 09:30:55;;;;;;;4.70;1.20;;;8.30;88.80;;;;;;5041613;28;20048;-64
2023/01/12 09:33:22;;;;;;;2.78;0.80;;;8.30;88.80;;;;;;5035816;28;20132;-63
2023/01/12 09:35:49;;;;;;;6.53;1.48;;;8.30;88.70;;;;;;5037344;28;20128;-63
2023/01/12 09:38:16;;;;;;;4.70;1.30;;;8.30;88.80;;;;;;5039975;28;20059;-62
2023/01/12 09:40:44;;;;;;;4.55;1.00;;;8.30;88.90;;;;;;5039461;28;20060;-61
2023/01/12 09:48:44;;;;;;;5.80;1.23;;;8.40;88.90;;;;;;5036921;28;20045;-60
2023/01/12 09:51:20;;;;;;;4.03;0.90;;;8.40;89.10;;;;;;5039685;28;20045;-60
2023/01/12 09:53:47;;;;;;;4.13;1.17;;;8.40;89.10;;;;;;5040483;28;20053;-60
2023/01/12 09:56:20;;;;;;;4.57;1.00;;;8.40;89.10;;;;;;5039046;28;20045;-60
2023/01/12 09:59:21;;;;;;;2.97;1.02;;;8.50;89.40;;;;;;5039332;28;20104;-60
2023/01/12 10:01:48;;;;;;;3.25;1.00;;;8.40;89.30;;;;;;5039038;28;20049;-59
2023/01/12 10:04:15;;;;;;;5.32;1.00;;;8.40;89.20;;;;;;5037867;28;20128;-60
2023/01/12 10:06:42;;;;;;;2.67;0.75;;;8.40;89.30;;;;;;5040279;28;20087;-63
2023/01/12 10:09:15;;;;;;;3.17;0.88;;;8.50;89.30;;;;;;5039602;28;20064;-62
2023/01/12 10:11:46;;;;;;;3.50;0.88;;;8.50;89.30;;;;;;5040823;28;20048;-68
2023/01/12 10:14:46;;;;;;;4.70;1.20;;;8.50;89.40;;;;;;5053029;28;20056;-68
2023/01/12 10:17:29;;;;;;;4.68;1.23;;;8.50;89.30;;;;;;5037602;28;20076;-69
2023/01/12 10:20:02;;;;;;;4.68;1.30;;;8.50;89.40;;;;;;5040574;28;20056;-68
2023/01/12 10:22:38;;;;;;;4.30;1.23;;;8.50;89.30;;;;;;5042989;28;20847;-68
2023/01/12 10:25:16;;;;;;;2.58;0.70;;;8.50;89.40;;;;;;5042449;28;20041;-68
2023/01/12 10:27:44;;;;;;;3.35;0.95;;;8.50;89.50;;;;;;5042994;28;20056;-69
2023/01/12 10:30:17;;;;;;;3.50;0.85;;;8.50;89.40;;;;;;5042051;28;20049;-62
2023/01/12 10:32:44;;;;;;;2.72;0.75;;;8.50;89.40;;;;;;5040527;28;20057;-61
2023/01/12 10:35:16;;;;;;;4.72;1.48;;;8.60;89.40;;;;;;5037444;28;20049;-63
2023/01/12 10:37:45;;;;;;;6.00;2.45;;;8.60;89.40;;;;;;5038432;28;20067;-61
2023/01/12 10:40:27;;;;;;;7.05;2.53;;;8.60;89.40;;;;;;5037962;28;20041;-62
2023/01/12 10:43:21;;;;;;;5.35;2.25;;;8.50;89.50;;;;;;5037830;28;20133;-61
2023/01/12 10:46:08;;;;;;;6.40;1.90;;;8.60;89.40;;;;;;5042875;28;20411;-61
2023/01/12 10:48:37;;;;;;;4.47;1.48;;;8.60;89.60;;;;;;5042258;28;20048;-62
2023/01/12 10:51:07;;;;;;;3.75;1.17;;;8.60;89.60;;;;;;5037305;28;20041;-59
2023/01/12 10:53:42;;;;;;;3.70;1.07;;;8.60;89.60;;;;;;5037483;28;20052;-59
2023/01/12 10:56:24;;;;;;;5.15;1.55;;;8.60;89.50;;;;;;5048849;28;20470;-61
2023/01/12 10:58:54;;;;;;;2.33;1.00;;;8.60;89.50;;;;;;5048195;28;20131;-60
2023/01/12 11:01:22;;;;;;;4.00;1.47;;;8.60;89.50;;;;;;5047155;28;20147;-58
2023/01/12 11:03:50;;;;;;;4.65;1.10;;;8.60;89.50;;;;;;5043620;28;20054;-59
2023/01/12 11:06:25;;;;;;;4.60;1.08;;;8.60;89.50;;;;;;5037484;28;20040;-60
2023/01/12 11:08:54;;;;;;;3.35;0.98;;;8.60;89.50;;;;;;5040747;28;20495;-59
2023/01/12 11:11:29;;;;;;;3.65;1.00;;;8.60;89.60;;;;;;5033629;28;20053;-69
2023/01/12 11:13:57;;;;;;;5.13;1.08;;;8.60;89.50;;;;;;5033505;28;20151;-70
2023/01/12 11:16:30;;;;;;;4.85;1.15;;;8.70;89.50;;;;;;5035900;28;20449;-68
2023/01/12 11:19:17;;;;;;;3.72;1.20;;;8.70;89.50;;;;;;5036220;28;20056;-67
2023/01/12 11:21:48;;;;;;;3.72;0.98;;;8.70;89.50;;;;;;5039303;28;20048;-60
2023/01/12 11:24:28;;;;;;;4.05;0.88;;;8.70;89.70;;;;;;5036200;28;20041;-61
2023/01/12 11:26:58;;;;;;;3.85;1.17;;;8.70;89.70;;;;;;5033313;28;20393;-59
2023/01/12 11:29:35;;;;;;;4.60;0.93;;;8.70;89.70;;;;;;5037210;28;20053;-60
2023/01/12 11:32:10;;;;;;;4.55;1.00;;;8.70;89.70;;;;;;5035456;28;20057;-61
2023/01/12 11:34:52;;;;;;;3.95;0.95;;;8.70;89.80;;;;;;5033986;28;20532;-61
2023/01/12 11:37:19;;;;;;;3.70;0.82;;;8.70;89.70;;;;;;5043627;28;20071;-59
2023/01/12 11:39:51;;;;;;;3.00;0.60;;;8.70;89.70;;;;;;5046267;28;20053;-60
2023/01/12 11:45:12;;;;;;;4.80;0.80;;;8.70;89.70;;;;;;5050645;28;20060;-61
2023/01/12 11:47:45;;;;;;;2.50;0.60;;;8.70;89.80;;;;;;5042299;28;20143;-60
2023/01/12 11:50:16;;;;;;;2.80;0.75;;;8.70;89.80;;;;;;5048422;28;20111;-57
2023/01/12 11:52:44;;;;;;;7.85;1.08;;;8.70;89.70;;;;;;5047278;28;20053;-58
2023/01/12 11:55:15;;;;;;;4.15;0.70;;;8.70;89.80;;;;;;5051141;28;20074;-64
2023/01/12 11:57:52;;;;;;;2.97;0.60;;;8.70;89.90;;;;;;5050154;28;20040;-66
2023/01/12 12:00:30;;;;;;;1.52;0.38;;;8.70;89.90;;;;;;5047843;28;20048;-66
2023/01/12 12:03:27;;;;;;;5.57;0.70;;;8.70;90.00;;;;;;5036121;28;20052;-67
2023/01/12 12:06:06;;;;;;;4.47;1.15;;;8.70;90.00;;;;;;5038046;28;20053;-65
2023/01/12 12:08:49;;;;;;;3.53;0.88;;;8.70;89.90;;;;;;5038050;28;20681;-67
2023/01/12 12:11:26;;;;;;;5.07;1.17;;;8.70;89.90;;;;;;5039099;28;20073;-66
2023/01/12 12:14:01;;;;;;;3.75;1.10;;;8.70;90.10;;;;;;5040273;28;20045;-66
2023/01/12 12:16:38;;;;;;;4.97;1.02;;;8.80;90.00;;;;;;5039545;28;20050;-68
2023/01/12 12:19:18;;;;;;;5.22;0.80;;;8.70;90.10;;;;;;5040436;28;20056;-68
2023/01/12 12:21:50;;;;;;;2.97;0.93;;;8.70;90.10;;;;;;5037162;28;20049;-67
2023/01/12 12:24:30;;;;;;;3.30;0.95;;;8.80;90.10;;;;;;5042853;28;20128;-67
2023/01/12 12:27:06;;;;;;;4.50;1.30;;;8.80;90.00;;;;;;5042107;28;20368;-67
2023/01/12 12:29:46;;;;;;;3.38;1.10;;;8.80;90.00;;;;;;5039408;28;20053;-68
2023/01/12 12:32:25;;;;;;;3.70;1.00;;;8.80;90.00;;;;;;5044269;28;20052;-66
2023/01/12 12:35:05;;;;;;;5.25;1.10;;;8.80;90.10;;;;;;5038152;28;20061;-66
2023/01/12 12:37:46;;;;;;;6.40;0.98;;;8.80;90.00;;;;;;5037542;28;20047;-67
2023/01/12 12:40:27;;;;;;;4.25;1.00;;;8.90;90.00;;;;;;5050447;28;20049;-67
2023/01/12 12:45:52;;;;;;;6.32;1.23;;;8.90;89.90;;;;;;5047368;28;20159;-67
2023/01/12 12:48:23;;;;;;;5.97;1.55;;;8.90;89.90;;;;;;5053336;28;20645;-65
2023/01/12 12:51:00;;;;;;;6.20;1.40;;;8.90;89.90;;;;;;5040038;28;20045;-59
2023/01/12 12:53:31;;;;;;;2.30;0.98;;;8.90;89.90;;;;;;5040186;28;20506;-59
2023/01/12 12:56:02;;;;;;;6.32;1.25;;;8.90;89.90;;;;;;5038512;28;20056;-66
2023/01/12 12:58:39;;;;;;;6.45;1.80;;;8.90;89.80;;;;;;5040445;28;20045;-65
2023/01/12 13:01:42;;;;;;;4.72;1.42;;;8.90;89.70;;;;;;5039918;28;20091;-67
2023/01/12 13:04:11;;;;;;;5.25;1.30;;;8.90;89.60;;;;;;5037506;28;20048;-65
2023/01/12 13:06:46;;;;;;;3.03;0.85;;;9.00;89.50;;;;;;5043059;28;20053;-61
2023/01/12 13:09:41;;;;;;;3.33;1.20;;;9.00;89.50;;;;;;5043784;28;20046;-59
2023/01/12 13:12:35;;;;;;;4.07;1.55;;;9.00;89.50;;;;;;5058844;28;20056;-58
2023/01/12 13:15:21;;;;;;;3.53;1.30;;;9.00;89.60;;;;;;5039661;28;20132;-59
2023/01/12 13:17:49;;;;;;;3.85;0.82;;;9.00;89.50;;;;;;5042982;28;20053;-60
2023/01/12 13:21:01;;;;;;;2.10;0.75;;;9.00;89.50;;;;;;5043458;28;20048;-60
2023/01/12 13:24:20;;;;;;;2.35;0.70;;;9.10;89.30;;;;;;5051598;28;20053;-60
2023/01/12 13:26:51;;;;;;;1.50;0.60;;;9.00;89.10;;;;;;5039344;28;20056;-59
2023/01/12 13:29:40;;;;;;;3.45;0.80;;;9.00;89.10;;;;;;5036782;28;20119;-60
2023/01/12 13:32:40;;;;;;;2.30;0.80;;;9.10;89.10;;;;;;5041947;28;20059;-59
2023/01/12 13:35:52;;;;;;;1.58;0.60;;;9.10;89.10;;;;;;5041101;28;20042;-59
2023/01/12 13:38:43;;;;;;;3.05;0.65;;;9.10;89.00;;;;;;5048833;28;20041;-59
2023/01/12 13:44:01;;;;;;;1.85;0.55;;;9.10;88.90;;;;;;5049759;28;20040;-60
2023/01/12 13:46:32;;;;;;;1.75;0.50;;;9.10;88.90;;;;;;5049973;28;20069;-60
2023/01/12 13:48:59;;;;;;;3.97;0.80;;;9.10;88.90;;;;;;5051758;28;20057;-61
2023/01/12 13:51:32;;;;;;;5.50;1.55;;;9.10;88.90;;;;;;5052639;28;20052;-59
2023/01/12 13:54:03;;;;;;;5.10;2.15;;;9.20;88.90;;;;;;5050064;28;20060;-60
2023/01/12 13:56:32;;;;;;;5.13;2.13;;;9.20;88.80;;;;;;5048094;28;20158;-59
2023/01/12 13:59:00;;;;;;;4.13;1.38;;;9.20;88.90;;;;;;5052427;28;20287;-58
2023/01/12 14:01:32;;;;;;;2.80;1.10;;;9.10;88.90;;;;;;5054892;28;20047;-60